^^

Nearby METAR Reports

 

KBJC - Broomfield, Colorado
Distance from station: ESE 4mi, 6km
Updated: 11/22/2017 4:54am
Clear
Clear
 Wind from calm
Wind: Calm
Temperature: 36°F , 2°C
Dew Point: 32°F , 0°C
Humidity: 87%
Barometer: 1024 hPa
Clouds: Clear
Visibility: 10 miles , 16 km
2017/11/22 11:54 KBJC 221154Z AUTO 00000KT 10SM CLR 02/00 A3024 RMK AO2
KBDU - Boulder, Colorado
Distance from station: NNW 8mi, 13km
Updated: 11/22/2017 5:12am
Clear
Clear
 Wind from calm
Wind: Calm
Temperature: 34°F , 1°C
Dew Point: 32°F , 0°C
Humidity: 93%
Barometer: 1023.7 hPa
Clouds: Clear
Visibility: 10 miles , 16 km
2017/11/22 12:12 KBDU 221212Z AUTO 00000KT 10SM CLR 01/00 A3023 RMK AO2
 
KEIK - Erie, Colorado
Distance from station: NE 8mi, 14km
Updated: 11/22/2017 5:18am
Clear
Clear
 Wind from calm
Wind: Calm
Temperature: 30°F , -1°C
Dew Point: 28°F , -2°C
Humidity: 93%
Barometer: 1025.4 hPa
Clouds: Clear
Visibility: 7 miles , 11 km
2017/11/22 12:18 KEIK 221218Z AUTO 00000KT 7SM CLR M01/M02 A3028 RMK AO2 T10101016
KLMO - Longmont, Colorado
Distance from station: N 17mi, 27km
Updated: 11/22/2017 5:15am
Clear
Clear
 Wind from calm
Wind: Calm
Temperature: 34°F , 1°C
Dew Point: 32°F , 0°C
Humidity: 93%
Barometer: 1024.4 hPa
Clouds: Clear
Visibility: 7 miles , 11 km
2017/11/22 12:15 KLMO 221215Z AUTO 00000KT 7SM CLR 01/00 A3025 RMK AO2 T00091002
 
KDEN - Denver (DIA), Colorado
Distance from station: E 27mi, 44km
Updated: 11/22/2017 4:53am
Mostly cloudy
Mostly cloudy
 Wind from calm
Wind: Calm
Temperature: 36°F , 2°C
Dew Point: 30°F , -1°C
Humidity: 81%
Barometer: 1024 hPa
Clouds: Mostly cloudy
Visibility: 10 miles , 16 km
Cloud details: Partly cloudy 12000 ft
Mostly cloudy 20000 ft
2017/11/22 11:53 KDEN 221153Z 00000KT 10SM SCT120 BKN200 02/M01 A3024 RMK AO2 SLP239 70002 T00171011 10033 20006 53003
KFNL - Ft Collins, Colorado
Distance from station: N 37mi, 59km
Updated: 11/22/2017 4:56am
Partly cloudy
Partly cloudy
 Wind from varies
Wind: varies 3 mph , 6 km/h
Temperature: 34°F , 1°C
Dew Point: 34°F , 1°C
Humidity: 100%
Barometer: 1024 hPa
Clouds: Partly cloudy
Visibility: 8 miles , 13 km
Cloud details: Partly cloudy 11000 ft
2017/11/22 11:56 KFNL 221156Z AUTO VRB03KT 8SM SCT110 01/01 A3024 RMK AO2 SLP249 70016 T00110006 10011 20000 58000 FZRANO
 
KGXY - Greeley, Colorado
Distance from station: NE 44mi, 71km
Updated: 11/22/2017 4:56am
Clear
Clear
 Wind from SSE
Wind: SSE 5 mph , 7 km/h
Temperature: 30°F , -1°C
Wind Chill: 25°F , -4°C
Dew Point: 28°F , -2°C
Humidity: 93%
Barometer: 1024 hPa
Clouds: Clear
Visibility: 10 miles , 16 km
2017/11/22 11:56 KGXY 221156Z AUTO 16004KT 10SM CLR M01/M02 A3024 RMK AO2 SLP268 T10061022 10000 21017 58002 FZRANO
KSBS - Steamboat Springs, Colorado
Distance from station: N 99mi, 159km
Updated: 11/22/2017 5:12am
Overcast
Overcast
 Wind from calm
Wind: Calm
Temperature: 32°F , 0°C
Dew Point: 32°F , 0°C
Humidity: 100%
Barometer: 1031.2 hPa
Clouds: Overcast
Visibility: 10 miles , 16 km
Cloud details: Overcast 4600 ft
2017/11/22 12:12 KSBS 221212Z AUTO 00000KT 10SM OVC046 00/00 A3045 RMK AO1 T00010000
 
KEGE - Eagle Co. Region, Colorado
Distance from station: SW 96mi, 154km
Updated: 11/22/2017 4:56am
Clear
Clear
 Wind from calm
Wind: Calm
Temperature: 28°F , -2°C
Dew Point: 27°F , -3°C
Humidity: 93%
Barometer: 1032.8 hPa
Clouds: Clear
Visibility: 10 miles , 16 km
2017/11/22 11:56 KEGE 221156Z AUTO 00000KT 10SM CLR M02/M03 A3050 RMK AO2 SLP349 T10171033 10006 21017 51005 FZRANO
KGJT - Grand Junction, Colorado
Distance from station: WSW 187mi, 302km
Updated: 11/22/2017 4:53am
Clear
Clear
 Wind from E
Wind: E 9 mph , 15 km/h
Temperature: 37°F , 3°C
Wind Chill: 30°F , -1°C
Dew Point: 28°F , -2°C
Humidity: 70%
Barometer: 1030.1 hPa
Clouds: Clear
Visibility: 10 miles , 16 km
2017/11/22 11:53 KGJT 221153Z AUTO 10008KT 10SM CLR 03/M02 A3042 RMK AO2 SLP292 T00281017 10056 20011 51004
 
KDRO - Durango, Colorado
Distance from station: SW 238mi, 383km
Updated: 11/22/2017 4:53am
Clear
Clear
 Wind from NNE
Wind: NNE 3 mph , 6 km/h
Temperature: 25°F , -4°C
Dew Point: 18°F , -8°C
Humidity: 74%
Barometer: 1029.8 hPa
Clouds: Clear
Visibility: 10 miles , 16 km
2017/11/22 11:53 KDRO 221153Z AUTO 02003KT 10SM CLR M04/M08 A3041 RMK AO2 SLP303 T10391078 11006 21050 53001
KCYS - Cheyenne, Wyoming
Distance from station: N 86mi, 139km
Updated: 11/22/2017 4:53am
Few Clouds
Few Clouds
 Wind from WNW
Wind: WNW 13 mph , 20 km/h, Gust: 21 mph , 33 km/h
Temperature: 48°F , 9°C
Wind Chill: 43°F , 6°C
Dew Point: 36°F , 2°C
Humidity: 62%
Barometer: 1023 hPa
Clouds: Few Clouds
Visibility: 10 miles , 16 km
Cloud details: Few Clouds 10000 ft
2017/11/22 11:53 KCYS 221153Z AUTO 30011G18KT 10SM FEW100 09/02 A3021 RMK AO2 SLP217 T00890017 10094 20000 58004 $
 
KCOS - Colorado Springs, Colorado
Distance from station: S 74mi, 120km
Updated: 11/22/2017 4:54am
Partly cloudy
Partly cloudy
 Wind from N
Wind: N 10 mph , 17 km/h
Temperature: 36°F , 2°C
Wind Chill: 29°F , -2°C
Dew Point: 27°F , -3°C
Humidity: 70%
Barometer: 1025.4 hPa
Clouds: Partly cloudy
Visibility: 10 miles , 16 km
Cloud details: Few Clouds 11000 ft
Partly cloudy 25000 ft
2017/11/22 11:54 KCOS 221154Z 01009KT 10SM FEW110 SCT250 02/M03 A3028 RMK AO2 SLP258 T00171033 10022 21017 55011
KPUB - Pueblo, Colorado
Distance from station: S 119mi, 192km
Updated: 11/22/2017 4:53am
Clear
Clear
 Wind from calm
Wind: Calm
Temperature: 30°F , -1°C
Dew Point: 28°F , -2°C
Humidity: 93%
Barometer: 1025.1 hPa
Clouds: Clear
Visibility: 10 miles , 16 km
2017/11/22 11:53 KPUB 221153Z AUTO 00000KT 10SM CLR M01/M02 A3027 RMK AO2 SLP254 T10061022 10011 21022 55008
 
KLAA - Lamar, Colorado
Distance from station: ESE 184mi, 297km
Updated: 11/22/2017 4:53am
Clear
Clear
 Wind from calm
Wind: Calm
Temperature: 25°F , -4°C
Dew Point: 19°F , -7°C
Humidity: 80%
Barometer: 1024.7 hPa
Clouds: Clear
Visibility: 10 miles , 16 km
2017/11/22 11:53 KLAA 221153Z AUTO 00000KT 10SM CLR M04/M07 A3026 RMK AO2 SLP258 T10391067 11011 21050 56013